sensor_id;sensor_type;location;lat;lon;timestamp;pressure;altitude;pressure_sealevel;temperature;humidity
62031;BME280;62035;52.094;5.112;2023-06-14T00:01:52;101567.56;;;19.79;100.00
62031;BME280;62035;52.094;5.112;2023-06-14T00:04:19;101575.09;;;19.83;100.00
62031;BME280;62035;52.094;5.112;2023-06-14T00:06:51;101571.19;;;19.86;100.00
62031;BME280;62035;52.094;5.112;2023-06-14T00:09:18;101553.09;;;19.65;100.00
62031;BME280;62035;52.094;5.112;2023-06-14T00:11:46;101568.44;;;19.64;100.00
62031;BME280;62035;52.094;5.112;2023-06-14T00:14:15;101567.75;;;19.77;100.00
62031;BME280;62035;52.094;5.112;2023-06-14T00:16:42;101571.50;;;19.76;100.00
62031;BME280;62035;52.094;5.112;2023-06-14T00:19:10;101575.59;;;19.72;100.00
62031;BME280;62035;52.094;5.112;2023-06-14T00:21:37;101576.13;;;19.82;100.00
62031;BME280;62035;52.094;5.112;2023-06-14T00:24:05;101577.38;;;19.65;100.00
62031;BME280;62035;52.094;5.112;2023-06-14T00:26:34;101574.75;;;19.72;100.00
62031;BME280;62035;52.094;5.112;2023-06-14T00:29:02;101570.88;;;19.59;100.00
62031;BME280;62035;52.094;5.112;2023-06-14T00:31:31;101575.41;;;19.52;100.00
62031;BME280;62035;52.094;5.112;2023-06-14T00:33:58;101578.59;;;19.62;100.00
62031;BME280;62035;52.094;5.112;2023-06-14T00:36:26;101578.38;;;19.57;100.00
62031;BME280;62035;52.094;5.112;2023-06-14T00:38:54;101581.44;;;19.54;100.00
62031;BME280;62035;52.094;5.112;2023-06-14T00:41:21;101575.03;;;19.55;100.00
62031;BME280;62035;52.094;5.112;2023-06-14T00:43:49;101575.59;;;19.51;100.00
62031;BME280;62035;52.094;5.112;2023-06-14T00:46:17;101587.03;;;19.53;100.00
62031;BME280;62035;52.094;5.112;2023-06-14T00:48:47;101581.53;;;19.46;100.00
62031;BME280;62035;52.094;5.112;2023-06-14T00:51:15;101582.19;;;19.33;100.00
62031;BME280;62035;52.094;5.112;2023-06-14T00:53:43;101577.53;;;19.42;100.00
62031;BME280;62035;52.094;5.112;2023-06-14T00:56:13;101576.88;;;19.40;100.00
62031;BME280;62035;52.094;5.112;2023-06-14T00:58:41;101578.34;;;19.43;100.00
62031;BME280;62035;52.094;5.112;2023-06-14T01:01:10;101575.22;;;19.24;100.00
62031;BME280;62035;52.094;5.112;2023-06-14T01:03:38;101573.81;;;19.28;100.00
62031;BME280;62035;52.094;5.112;2023-06-14T01:06:14;101580.91;;;19.15;100.00
62031;BME280;62035;52.094;5.112;2023-06-14T01:09:13;101578.78;;;18.95;100.00
62031;BME280;62035;52.094;5.112;2023-06-14T01:11:51;101588.38;;;19.13;100.00
62031;BME280;62035;52.094;5.112;2023-06-14T01:14:27;101584.00;;;19.12;100.00
62031;BME280;62035;52.094;5.112;2023-06-14T01:16:58;101582.22;;;19.19;100.00
62031;BME280;62035;52.094;5.112;2023-06-14T01:19:26;101575.13;;;19.32;100.00
62031;BME280;62035;52.094;5.112;2023-06-14T01:21:56;101576.59;;;19.20;100.00
62031;BME280;62035;52.094;5.112;2023-06-14T01:24:29;101584.91;;;19.04;100.00
62031;BME280;62035;52.094;5.112;2023-06-14T01:27:00;101576.75;;;19.12;100.00
62031;BME280;62035;52.094;5.112;2023-06-14T01:29:29;101578.13;;;19.08;100.00
62031;BME280;62035;52.094;5.112;2023-06-14T01:31:59;101586.78;;;19.04;100.00
62031;BME280;62035;52.094;5.112;2023-06-14T01:34:27;101583.16;;;18.96;100.00
62031;BME280;62035;52.094;5.112;2023-06-14T01:36:55;101576.47;;;19.07;100.00
62031;BME280;62035;52.094;5.112;2023-06-14T01:39:24;101586.84;;;18.81;100.00
62031;BME280;62035;52.094;5.112;2023-06-14T01:41:53;101583.41;;;18.87;100.00
62031;BME280;62035;52.094;5.112;2023-06-14T01:44:22;101579.34;;;19.06;100.00
62031;BME280;62035;52.094;5.112;2023-06-14T01:46:51;101580.63;;;18.95;100.00
62031;BME280;62035;52.094;5.112;2023-06-14T01:49:20;101580.16;;;18.91;100.00
62031;BME280;62035;52.094;5.112;2023-06-14T01:51:47;101580.63;;;18.80;100.00
62031;BME280;62035;52.094;5.112;2023-06-14T01:54:15;101582.59;;;18.72;100.00
62031;BME280;62035;52.094;5.112;2023-06-14T01:56:43;101582.78;;;18.70;100.00
62031;BME280;62035;52.094;5.112;2023-06-14T01:59:11;101573.00;;;18.69;100.00
62031;BME280;62035;52.094;5.112;2023-06-14T02:01:39;101584.28;;;18.50;100.00
62031;BME280;62035;52.094;5.112;2023-06-14T02:04:07;101569.78;;;18.74;100.00
62031;BME280;62035;52.094;5.112;2023-06-14T02:06:34;101578.97;;;18.64;100.00
62031;BME280;62035;52.094;5.112;2023-06-14T02:09:02;101579.00;;;18.56;100.00
62031;BME280;62035;52.094;5.112;2023-06-14T02:11:30;101571.97;;;18.85;100.00
62031;BME280;62035;52.094;5.112;2023-06-14T02:13:58;101576.91;;;18.44;100.00
62031;BME280;62035;52.094;5.112;2023-06-14T02:16:27;101578.72;;;18.51;100.00
62031;BME280;62035;52.094;5.112;2023-06-14T02:18:55;101572.91;;;18.40;100.00
62031;BME280;62035;52.094;5.112;2023-06-14T02:21:23;101572.00;;;18.32;100.00
62031;BME280;62035;52.094;5.112;2023-06-14T02:23:50;101569.53;;;18.23;100.00
62031;BME280;62035;52.094;5.112;2023-06-14T02:26:18;101572.41;;;18.21;100.00
62031;BME280;62035;52.094;5.112;2023-06-14T02:28:45;101572.56;;;18.43;100.00
62031;BME280;62035;52.094;5.112;2023-06-14T02:31:13;101576.66;;;18.39;100.00
62031;BME280;62035;52.094;5.112;2023-06-14T02:33:43;101578.06;;;18.12;100.00
62031;BME280;62035;52.094;5.112;2023-06-14T02:36:11;101579.06;;;18.11;100.00
62031;BME280;62035;52.094;5.112;2023-06-14T02:38:38;101582.38;;;18.21;100.00
62031;BME280;62035;52.094;5.112;2023-06-14T02:41:07;101582.28;;;18.29;100.00
62031;BME280;62035;52.094;5.112;2023-06-14T02:43:34;101578.28;;;18.25;100.00
62031;BME280;62035;52.094;5.112;2023-06-14T02:46:02;101592.47;;;18.19;100.00
62031;BME280;62035;52.094;5.112;2023-06-14T02:48:29;101584.75;;;18.16;100.00
62031;BME280;62035;52.094;5.112;2023-06-14T02:50:58;101579.88;;;17.96;100.00
62031;BME280;62035;52.094;5.112;2023-06-14T02:53:26;101585.25;;;17.96;100.00
62031;BME280;62035;52.094;5.112;2023-06-14T02:55:53;101589.91;;;18.03;100.00
62031;BME280;62035;52.094;5.112;2023-06-14T02:58:21;101591.34;;;17.90;100.00
62031;BME280;62035;52.094;5.112;2023-06-14T03:00:51;101588.97;;;17.95;100.00
62031;BME280;62035;52.094;5.112;2023-06-14T03:03:19;101597.41;;;17.92;100.00
62031;BME280;62035;52.094;5.112;2023-06-14T03:05:48;101591.41;;;18.05;100.00
62031;BME280;62035;52.094;5.112;2023-06-14T03:08:18;101594.09;;;17.82;100.00
62031;BME280;62035;52.094;5.112;2023-06-14T03:10:46;101598.88;;;17.72;100.00
62031;BME280;62035;52.094;5.112;2023-06-14T03:13:15;101602.34;;;17.81;100.00
62031;BME280;62035;52.094;5.112;2023-06-14T03:15:43;101607.50;;;17.90;100.00
62031;BME280;62035;52.094;5.112;2023-06-14T03:18:11;101604.84;;;17.51;100.00
62031;BME280;62035;52.094;5.112;2023-06-14T03:20:38;101598.38;;;17.69;100.00
62031;BME280;62035;52.094;5.112;2023-06-14T03:23:07;101602.84;;;17.84;100.00
62031;BME280;62035;52.094;5.112;2023-06-14T03:25:36;101616.38;;;17.68;100.00
62031;BME280;62035;52.094;5.112;2023-06-14T03:28:04;101599.16;;;17.46;100.00
62031;BME280;62035;52.094;5.112;2023-06-14T03:30:32;101611.00;;;17.60;100.00
62031;BME280;62035;52.094;5.112;2023-06-14T03:33:00;101612.69;;;17.69;100.00
62031;BME280;62035;52.094;5.112;2023-06-14T03:35:28;101619.44;;;17.65;100.00
62031;BME280;62035;52.094;5.112;2023-06-14T03:37:56;101616.81;;;17.49;100.00
62031;BME280;62035;52.094;5.112;2023-06-14T03:40:23;101619.63;;;17.55;100.00
62031;BME280;62035;52.094;5.112;2023-06-14T03:42:54;101625.09;;;17.39;100.00
62031;BME280;62035;52.094;5.112;2023-06-14T03:45:22;101627.72;;;17.55;100.00
62031;BME280;62035;52.094;5.112;2023-06-14T03:47:50;101618.97;;;17.53;100.00
62031;BME280;62035;52.094;5.112;2023-06-14T03:50:17;101635.28;;;17.52;100.00
62031;BME280;62035;52.094;5.112;2023-06-14T03:52:47;101640.06;;;17.33;100.00
62031;BME280;62035;52.094;5.112;2023-06-14T03:55:16;101633.16;;;17.39;100.00
62031;BME280;62035;52.094;5.112;2023-06-14T03:57:44;101634.31;;;17.45;100.00
62031;BME280;62035;52.094;5.112;2023-06-14T04:00:14;101634.88;;;17.63;100.00
62031;BME280;62035;52.094;5.112;2023-06-14T04:02:42;101636.63;;;17.56;100.00
62031;BME280;62035;52.094;5.112;2023-06-14T04:05:10;101642.56;;;17.43;100.00
62031;BME280;62035;52.094;5.112;2023-06-14T04:07:38;101647.28;;;17.41;100.00
62031;BME280;62035;52.094;5.112;2023-06-14T04:10:11;101646.59;;;17.47;100.00
62031;BME280;62035;52.094;5.112;2023-06-14T04:12:39;101640.38;;;17.47;100.00
62031;BME280;62035;52.094;5.112;2023-06-14T04:15:08;101652.00;;;17.39;100.00
62031;BME280;62035;52.094;5.112;2023-06-14T04:17:38;101647.13;;;17.34;100.00
62031;BME280;62035;52.094;5.112;2023-06-14T04:20:07;101650.81;;;17.42;100.00
62031;BME280;62035;52.094;5.112;2023-06-14T04:22:35;101650.34;;;17.30;100.00
62031;BME280;62035;52.094;5.112;2023-06-14T04:25:03;101664.59;;;17.47;100.00
62031;BME280;62035;52.094;5.112;2023-06-14T04:27:32;101653.28;;;17.51;100.00
62031;BME280;62035;52.094;5.112;2023-06-14T04:30:02;101646.31;;;17.26;100.00
62031;BME280;62035;52.094;5.112;2023-06-14T04:32:30;101661.38;;;17.51;100.00
62031;BME280;62035;52.094;5.112;2023-06-14T04:35:00;101664.44;;;17.40;100.00
62031;BME280;62035;52.094;5.112;2023-06-14T04:37:29;101663.25;;;17.43;100.00
62031;BME280;62035;52.094;5.112;2023-06-14T04:39:57;101660.53;;;17.51;100.00
62031;BME280;62035;52.094;5.112;2023-06-14T04:42:25;101662.69;;;17.55;100.00
62031;BME280;62035;52.094;5.112;2023-06-14T04:44:56;101667.28;;;17.39;100.00
62031;BME280;62035;52.094;5.112;2023-06-14T04:47:24;101670.00;;;17.39;100.00
62031;BME280;62035;52.094;5.112;2023-06-14T04:49:56;101663.59;;;17.40;100.00
62031;BME280;62035;52.094;5.112;2023-06-14T04:52:27;101670.94;;;17.54;100.00
62031;BME280;62035;52.094;5.112;2023-06-14T04:54:56;101671.72;;;17.62;100.00
62031;BME280;62035;52.094;5.112;2023-06-14T04:57:23;101667.25;;;17.55;100.00
62031;BME280;62035;52.094;5.112;2023-06-14T04:59:51;101664.72;;;17.53;100.00
62031;BME280;62035;52.094;5.112;2023-06-14T05:02:21;101667.31;;;17.78;100.00
62031;BME280;62035;52.094;5.112;2023-06-14T05:04:50;101668.38;;;18.45;100.00
62031;BME280;62035;52.094;5.112;2023-06-14T05:07:18;101671.81;;;19.44;100.00
62031;BME280;62035;52.094;5.112;2023-06-14T05:09:47;101666.16;;;20.25;100.00
62031;BME280;62035;52.094;5.112;2023-06-14T05:12:15;101668.28;;;20.73;100.00
62031;BME280;62035;52.094;5.112;2023-06-14T05:14:45;101669.66;;;21.52;100.00
62031;BME280;62035;52.094;5.112;2023-06-14T05:17:12;101669.59;;;22.00;99.40
62031;BME280;62035;52.094;5.112;2023-06-14T05:19:40;101664.09;;;22.35;95.19
62031;BME280;62035;52.094;5.112;2023-06-14T05:22:07;101667.97;;;22.06;93.88
62031;BME280;62035;52.094;5.112;2023-06-14T05:24:35;101675.16;;;22.59;90.72
62031;BME280;62035;52.094;5.112;2023-06-14T05:27:05;101679.13;;;22.63;88.17
62031;BME280;62035;52.094;5.112;2023-06-14T05:29:33;101684.53;;;22.31;92.29
62031;BME280;62035;52.094;5.112;2023-06-14T05:32:00;101670.75;;;22.52;88.79
62031;BME280;62035;52.094;5.112;2023-06-14T05:34:28;101675.16;;;22.86;88.12
62031;BME280;62035;52.094;5.112;2023-06-14T05:36:55;101680.38;;;22.54;88.49
62031;BME280;62035;52.094;5.112;2023-06-14T05:39:23;101675.97;;;22.40;88.26
62031;BME280;62035;52.094;5.112;2023-06-14T05:41:50;101674.13;;;22.60;87.36
62031;BME280;62035;52.094;5.112;2023-06-14T05:44:19;101674.53;;;23.10;84.86
62031;BME280;62035;52.094;5.112;2023-06-14T05:46:47;101673.06;;;23.14;83.87
62031;BME280;62035;52.094;5.112;2023-06-14T05:49:14;101679.06;;;23.36;82.62
62031;BME280;62035;52.094;5.112;2023-06-14T05:51:42;101673.59;;;23.49;82.25
62031;BME280;62035;52.094;5.112;2023-06-14T05:54:09;101684.22;;;24.02;79.33
62031;BME280;62035;52.094;5.112;2023-06-14T05:56:37;101668.06;;;23.76;78.35
62031;BME280;62035;52.094;5.112;2023-06-14T05:59:05;101683.91;;;24.30;76.39
62031;BME280;62035;52.094;5.112;2023-06-14T06:01:33;101684.56;;;24.25;75.81
62031;BME280;62035;52.094;5.112;2023-06-14T06:04:02;101694.47;;;24.07;76.37
62031;BME280;62035;52.094;5.112;2023-06-14T06:06:30;101694.19;;;24.28;75.35
62031;BME280;62035;52.094;5.112;2023-06-14T06:08:58;101687.56;;;24.04;75.15
62031;BME280;62035;52.094;5.112;2023-06-14T06:11:26;101694.88;;;24.10;74.85
62031;BME280;62035;52.094;5.112;2023-06-14T06:13:54;101697.13;;;24.20;72.92
62031;BME280;62035;52.094;5.112;2023-06-14T06:16:21;101690.16;;;23.92;74.34
62031;BME280;62035;52.094;5.112;2023-06-14T06:18:52;101694.19;;;24.53;72.38
62031;BME280;62035;52.094;5.112;2023-06-14T06:21:19;101701.56;;;24.46;72.22
62031;BME280;62035;52.094;5.112;2023-06-14T06:23:47;101701.38;;;24.72;70.44
62031;BME280;62035;52.094;5.112;2023-06-14T06:26:14;101692.78;;;24.75;70.17
62031;BME280;62035;52.094;5.112;2023-06-14T06:28:42;101686.63;;;24.80;69.12
62031;BME280;62035;52.094;5.112;2023-06-14T06:31:09;101696.13;;;24.77;68.63
62031;BME280;62035;52.094;5.112;2023-06-14T06:33:37;101696.22;;;25.14;68.66
62031;BME280;62035;52.094;5.112;2023-06-14T06:36:07;101701.47;;;25.52;66.32
62031;BME280;62035;52.094;5.112;2023-06-14T06:38:34;101702.72;;;25.13;67.42
62031;BME280;62035;52.094;5.112;2023-06-14T06:41:02;101701.56;;;24.77;68.11
62031;BME280;62035;52.094;5.112;2023-06-14T06:43:29;101710.22;;;25.17;67.09
62031;BME280;62035;52.094;5.112;2023-06-14T06:45:57;101702.63;;;25.19;66.43
62031;BME280;62035;52.094;5.112;2023-06-14T06:48:25;101711.13;;;25.30;66.63
62031;BME280;62035;52.094;5.112;2023-06-14T06:50:52;101709.75;;;25.20;65.48
62031;BME280;62035;52.094;5.112;2023-06-14T06:53:21;101724.97;;;25.10;65.42
62031;BME280;62035;52.094;5.112;2023-06-14T06:55:49;101723.25;;;24.84;65.89
62031;BME280;62035;52.094;5.112;2023-06-14T06:58:16;101720.50;;;25.15;65.44
62031;BME280;62035;52.094;5.112;2023-06-14T07:00:44;101716.34;;;25.31;64.62
62031;BME280;62035;52.094;5.112;2023-06-14T07:03:12;101721.94;;;24.93;64.99
62031;BME280;62035;52.094;5.112;2023-06-14T07:05:39;101724.75;;;24.80;65.53
62031;BME280;62035;52.094;5.112;2023-06-14T07:08:07;101733.03;;;24.91;65.61
62031;BME280;62035;52.094;5.112;2023-06-14T07:10:36;101734.84;;;24.48;65.67
62031;BME280;62035;52.094;5.112;2023-06-14T07:13:03;101734.75;;;24.23;67.59
62031;BME280;62035;52.094;5.112;2023-06-14T07:15:31;101734.19;;;24.52;67.08
62031;BME280;62035;52.094;5.112;2023-06-14T07:17:59;101741.72;;;24.12;68.40
62031;BME280;62035;52.094;5.112;2023-06-14T07:20:27;101742.78;;;24.05;69.36
62031;BME280;62035;52.094;5.112;2023-06-14T07:22:55;101741.19;;;23.90;69.82
62031;BME280;62035;52.094;5.112;2023-06-14T07:25:23;101746.28;;;23.74;70.27
62031;BME280;62035;52.094;5.112;2023-06-14T07:27:52;101746.06;;;23.75;71.82
62031;BME280;62035;52.094;5.112;2023-06-14T07:30:20;101742.28;;;23.76;71.10
62031;BME280;62035;52.094;5.112;2023-06-14T07:32:51;101748.44;;;24.03;70.38
62031;BME280;62035;52.094;5.112;2023-06-14T07:35:19;101751.06;;;23.85;70.87
62031;BME280;62035;52.094;5.112;2023-06-14T07:37:46;101749.03;;;24.12;70.69
62031;BME280;62035;52.094;5.112;2023-06-14T07:40:15;101754.84;;;24.22;69.54
62031;BME280;62035;52.094;5.112;2023-06-14T07:42:43;101758.22;;;24.17;70.43
62031;BME280;62035;52.094;5.112;2023-06-14T07:45:13;101760.53;;;24.14;68.88
62031;BME280;62035;52.094;5.112;2023-06-14T07:47:41;101754.50;;;24.05;68.81
62031;BME280;62035;52.094;5.112;2023-06-14T07:50:09;101755.13;;;24.07;67.13
62031;BME280;62035;52.094;5.112;2023-06-14T07:52:37;101763.75;;;24.42;66.95
62031;BME280;62035;52.094;5.112;2023-06-14T07:55:05;101760.69;;;24.64;66.18
62031;BME280;62035;52.094;5.112;2023-06-14T07:57:34;101767.94;;;24.76;65.00
62031;BME280;62035;52.094;5.112;2023-06-14T08:00:01;101761.94;;;24.92;65.47
62031;BME280;62035;52.094;5.112;2023-06-14T08:02:33;101761.94;;;24.99;64.44
62031;BME280;62035;52.094;5.112;2023-06-14T08:05:01;101771.16;;;24.98;64.20
62031;BME280;62035;52.094;5.112;2023-06-14T08:07:28;101780.59;;;24.96;62.95
62031;BME280;62035;52.094;5.112;2023-06-14T08:09:56;101763.94;;;25.10;62.64
62031;BME280;62035;52.094;5.112;2023-06-14T08:12:23;101774.94;;;24.97;61.12
62031;BME280;62035;52.094;5.112;2023-06-14T08:14:51;101772.81;;;24.99;61.41
62031;BME280;62035;52.094;5.112;2023-06-14T08:17:18;101769.81;;;25.07;60.64
62031;BME280;62035;52.094;5.112;2023-06-14T08:19:47;101767.44;;;25.17;60.63
62031;BME280;62035;52.094;5.112;2023-06-14T08:22:15;101776.16;;;25.01;61.35
62031;BME280;62035;52.094;5.112;2023-06-14T08:24:44;101767.22;;;25.19;59.62
62031;BME280;62035;52.094;5.112;2023-06-14T08:27:11;101763.34;;;25.26;59.60
62031;BME280;62035;52.094;5.112;2023-06-14T08:29:39;101759.13;;;25.31;58.24
62031;BME280;62035;52.094;5.112;2023-06-14T08:32:07;101762.78;;;25.43;58.55
62031;BME280;62035;52.094;5.112;2023-06-14T08:34:35;101758.44;;;25.35;57.68
62031;BME280;62035;52.094;5.112;2023-06-14T08:37:04;101759.19;;;25.24;56.62
62031;BME280;62035;52.094;5.112;2023-06-14T08:39:32;101764.09;;;25.58;56.54
62031;BME280;62035;52.094;5.112;2023-06-14T08:42:01;101757.88;;;25.51;56.29
62031;BME280;62035;52.094;5.112;2023-06-14T08:44:30;101756.84;;;25.71;56.47
62031;BME280;62035;52.094;5.112;2023-06-14T08:46:59;101758.44;;;25.78;56.12
62031;BME280;62035;52.094;5.112;2023-06-14T08:49:29;101759.56;;;25.71;56.47
62031;BME280;62035;52.094;5.112;2023-06-14T08:52:00;101766.44;;;25.55;55.96
62031;BME280;62035;52.094;5.112;2023-06-14T08:54:30;101768.22;;;25.61;54.79
62031;BME280;62035;52.094;5.112;2023-06-14T08:57:00;101767.97;;;25.87;54.45
62031;BME280;62035;52.094;5.112;2023-06-14T08:59:28;101765.63;;;25.91;53.67
62031;BME280;62035;52.094;5.112;2023-06-14T09:01:57;101766.63;;;25.97;52.32
62031;BME280;62035;52.094;5.112;2023-06-14T09:04:26;101762.03;;;26.09;52.41
62031;BME280;62035;52.094;5.112;2023-06-14T09:06:55;101770.09;;;25.85;50.83
62031;BME280;62035;52.094;5.112;2023-06-14T09:09:24;101768.28;;;25.79;51.98
62031;BME280;62035;52.094;5.112;2023-06-14T09:11:54;101754.03;;;25.77;50.18
62031;BME280;62035;52.094;5.112;2023-06-14T09:14:23;101763.69;;;26.10;49.02
62031;BME280;62035;52.094;5.112;2023-06-14T09:16:52;101764.91;;;26.32;47.72
62031;BME280;62035;52.094;5.112;2023-06-14T09:19:21;101764.47;;;26.47;46.97
62031;BME280;62035;52.094;5.112;2023-06-14T09:21:50;101761.38;;;26.43;46.42
62031;BME280;62035;52.094;5.112;2023-06-14T09:24:19;101767.91;;;26.42;47.12
62031;BME280;62035;52.094;5.112;2023-06-14T09:26:47;101770.16;;;26.45;47.41
62031;BME280;62035;52.094;5.112;2023-06-14T09:29:18;101767.09;;;26.53;47.10
62031;BME280;62035;52.094;5.112;2023-06-14T09:31:46;101769.66;;;26.67;46.87
62031;BME280;62035;52.094;5.112;2023-06-14T09:34:16;101767.06;;;26.72;46.64
62031;BME280;62035;52.094;5.112;2023-06-14T09:36:45;101766.13;;;26.48;46.19
62031;BME280;62035;52.094;5.112;2023-06-14T09:39:18;101767.91;;;26.42;46.14
62031;BME280;62035;52.094;5.112;2023-06-14T09:41:45;101775.50;;;26.22;46.15
62031;BME280;62035;52.094;5.112;2023-06-14T09:44:13;101758.41;;;26.33;45.54
62031;BME280;62035;52.094;5.112;2023-06-14T09:46:42;101773.78;;;26.09;44.67
62031;BME280;62035;52.094;5.112;2023-06-14T09:49:10;101769.13;;;26.28;44.65
62031;BME280;62035;52.094;5.112;2023-06-14T09:51:43;101783.84;;;26.27;44.64
62031;BME280;62035;52.094;5.112;2023-06-14T09:54:15;101778.16;;;26.58;43.13
62031;BME280;62035;52.094;5.112;2023-06-14T09:56:48;101786.22;;;26.53;43.77
62031;BME280;62035;52.094;5.112;2023-06-14T09:59:19;101794.28;;;26.30;42.13
62031;BME280;62035;52.094;5.112;2023-06-14T10:01:58;101791.09;;;26.51;42.90
62031;BME280;62035;52.094;5.112;2023-06-14T10:04:30;101770.03;;;26.70;42.28
62031;BME280;62035;52.094;5.112;2023-06-14T10:07:00;101777.16;;;26.41;42.30
62031;BME280;62035;52.094;5.112;2023-06-14T10:09:32;101776.63;;;26.63;43.10
62031;BME280;62035;52.094;5.112;2023-06-14T10:12:02;101772.28;;;26.85;42.73
62031;BME280;62035;52.094;5.112;2023-06-14T10:14:30;101754.69;;;26.81;41.90
62031;BME280;62035;52.094;5.112;2023-06-14T10:17:04;101775.63;;;26.87;42.35
62031;BME280;62035;52.094;5.112;2023-06-14T10:19:42;101762.69;;;26.94;42.91
62031;BME280;62035;52.094;5.112;2023-06-14T10:22:29;101765.53;;;26.76;40.93
62031;BME280;62035;52.094;5.112;2023-06-14T10:25:06;101767.28;;;26.82;39.91
62031;BME280;62035;52.094;5.112;2023-06-14T10:27:38;101773.78;;;26.99;38.46
62031;BME280;62035;52.094;5.112;2023-06-14T10:30:08;101747.53;;;26.98;38.94
62031;BME280;62035;52.094;5.112;2023-06-14T10:33:04;101776.09;;;26.84;39.69
62031;BME280;62035;52.094;5.112;2023-06-14T10:35:33;101767.84;;;27.02;39.50
62031;BME280;62035;52.094;5.112;2023-06-14T10:38:08;101762.97;;;27.04;39.94
62031;BME280;62035;52.094;5.112;2023-06-14T10:40:37;101770.47;;;27.20;39.81
62031;BME280;62035;52.094;5.112;2023-06-14T10:43:22;101765.72;;;27.51;40.07
62031;BME280;62035;52.094;5.112;2023-06-14T10:46:13;101763.94;;;27.45;40.74
62031;BME280;62035;52.094;5.112;2023-06-14T10:48:44;101744.28;;;27.71;39.53
62031;BME280;62035;52.094;5.112;2023-06-14T10:51:19;101765.00;;;27.44;38.79
62031;BME280;62035;52.094;5.112;2023-06-14T10:53:48;101765.47;;;27.64;39.56
62031;BME280;62035;52.094;5.112;2023-06-14T10:56:24;101769.50;;;27.38;38.28
62031;BME280;62035;52.094;5.112;2023-06-14T10:58:54;101763.34;;;27.43;38.01
62031;BME280;62035;52.094;5.112;2023-06-14T11:01:33;101758.34;;;27.51;37.51
62031;BME280;62035;52.094;5.112;2023-06-14T11:04:09;101770.81;;;27.71;37.58
62031;BME280;62035;52.094;5.112;2023-06-14T11:06:47;101767.97;;;28.06;37.21
62031;BME280;62035;52.094;5.112;2023-06-14T11:12:35;101758.66;;;28.30;36.98
62031;BME280;62035;52.094;5.112;2023-06-14T11:15:06;101769.84;;;28.17;38.47
62031;BME280;62035;52.094;5.112;2023-06-14T11:17:34;101759.97;;;28.16;38.09
62031;BME280;62035;52.094;5.112;2023-06-14T11:20:10;101746.03;;;28.29;38.06
62031;BME280;62035;52.094;5.112;2023-06-14T11:22:41;101752.94;;;28.48;38.46
62031;BME280;62035;52.094;5.112;2023-06-14T11:25:09;101749.59;;;28.75;38.40
62031;BME280;62035;52.094;5.112;2023-06-14T11:27:37;101757.78;;;28.58;38.33
62031;BME280;62035;52.094;5.112;2023-06-14T11:30:07;101774.38;;;27.83;37.99
62031;BME280;62035;52.094;5.112;2023-06-14T11:32:36;101752.81;;;27.98;38.20
62031;BME280;62035;52.094;5.112;2023-06-14T11:35:04;101749.25;;;27.86;39.17
62031;BME280;62035;52.094;5.112;2023-06-14T11:37:35;101752.75;;;28.21;38.45
62031;BME280;62035;52.094;5.112;2023-06-14T11:40:07;101754.81;;;28.60;37.18
62031;BME280;62035;52.094;5.112;2023-06-14T11:42:36;101750.47;;;29.09;36.59
62031;BME280;62035;52.094;5.112;2023-06-14T11:45:06;101765.81;;;28.93;36.21
62031;BME280;62035;52.094;5.112;2023-06-14T11:47:36;101758.22;;;28.67;35.63
62031;BME280;62035;52.094;5.112;2023-06-14T11:50:07;101747.63;;;28.87;36.10
62031;BME280;62035;52.094;5.112;2023-06-14T11:52:37;101756.09;;;29.02;35.95
62031;BME280;62035;52.094;5.112;2023-06-14T11:55:05;101754.91;;;29.32;35.58
62031;BME280;62035;52.094;5.112;2023-06-14T11:57:34;101741.00;;;29.77;35.56
62031;BME280;62035;52.094;5.112;2023-06-14T12:00:06;101747.00;;;29.74;34.92
62031;BME280;62035;52.094;5.112;2023-06-14T12:02:38;101750.81;;;29.34;35.29
62031;BME280;62035;52.094;5.112;2023-06-14T12:05:07;101744.38;;;29.62;35.18
62031;BME280;62035;52.094;5.112;2023-06-14T12:07:37;101753.63;;;30.22;34.99
62031;BME280;62035;52.094;5.112;2023-06-14T12:10:07;101746.19;;;30.17;34.46
62031;BME280;62035;52.094;5.112;2023-06-14T12:12:38;101735.19;;;30.44;34.43
62031;BME280;62035;52.094;5.112;2023-06-14T12:15:08;101737.69;;;31.09;34.02
62031;BME280;62035;52.094;5.112;2023-06-14T12:17:38;101735.84;;;31.67;32.70
62031;BME280;62035;52.094;5.112;2023-06-14T12:20:10;101743.41;;;31.03;32.69
62031;BME280;62035;52.094;5.112;2023-06-14T12:22:47;101736.97;;;30.87;31.96
62031;BME280;62035;52.094;5.112;2023-06-14T12:25:27;101748.41;;;30.74;33.17
62031;BME280;62035;52.094;5.112;2023-06-14T12:27:57;101750.31;;;30.46;33.22
62031;BME280;62035;52.094;5.112;2023-06-14T12:30:25;101748.41;;;30.74;33.37
62031;BME280;62035;52.094;5.112;2023-06-14T12:32:53;101739.88;;;30.70;33.55
62031;BME280;62035;52.094;5.112;2023-06-14T12:35:20;101729.19;;;31.11;32.67
62031;BME280;62035;52.094;5.112;2023-06-14T12:37:50;101746.69;;;31.37;32.15
62031;BME280;62035;52.094;5.112;2023-06-14T12:40:17;101737.47;;;31.63;31.80
62031;BME280;62035;52.094;5.112;2023-06-14T12:42:45;101742.22;;;31.26;30.77
62031;BME280;62035;52.094;5.112;2023-06-14T12:45:14;101745.50;;;31.70;29.93
62031;BME280;62035;52.094;5.112;2023-06-14T12:47:41;101733.06;;;31.57;30.83
62031;BME280;62035;52.094;5.112;2023-06-14T12:50:09;101741.31;;;31.62;30.38
62031;BME280;62035;52.094;5.112;2023-06-14T12:52:37;101734.72;;;31.58;30.95
62031;BME280;62035;52.094;5.112;2023-06-14T12:55:06;101737.91;;;31.97;30.59
62031;BME280;62035;52.094;5.112;2023-06-14T12:57:34;101739.50;;;31.31;31.35
62031;BME280;62035;52.094;5.112;2023-06-14T13:00:03;101743.88;;;31.74;31.00